createdAt,value
2023-01-01T00:00:43.925Z,17.07
2023-01-01T00:03:10.993Z,16.20
2023-01-01T00:05:41.398Z,14.40
2023-01-01T00:08:08.755Z,12.80
2023-01-01T00:10:35.735Z,13.27
2023-01-01T00:13:02.681Z,14.37
2023-01-01T00:15:29.725Z,13.50
2023-01-01T00:17:57.782Z,13.40
2023-01-01T00:20:27.635Z,13.17
2023-01-01T00:22:58.547Z,12.50
2023-01-01T00:25:25.610Z,13.13
2023-01-01T00:27:52.649Z,13.23
2023-01-01T00:30:19.740Z,13.10
2023-01-01T00:32:54.721Z,11.97
2023-01-01T00:35:24.986Z,13.03
2023-01-01T00:37:52.995Z,13.80
2023-01-01T00:40:20.317Z,16.17
2023-01-01T00:42:47.630Z,15.50
2023-01-01T00:45:20.838Z,18.60
2023-01-01T00:47:50.082Z,15.80
2023-01-01T00:50:17.596Z,10.07
2023-01-01T00:52:44.922Z,11.93
2023-01-01T00:55:12.344Z,15.13
2023-01-01T00:57:39.701Z,19.03
2023-01-01T01:00:08.088Z,14.50
2023-01-01T01:02:35.600Z,14.40
2023-01-01T01:05:04.725Z,17.00
2023-01-01T01:07:38.461Z,16.93
2023-01-01T01:10:06.555Z,16.20
2023-01-01T01:12:35.373Z,12.17
2023-01-01T01:15:03.022Z,9.73
2023-01-01T01:17:30.441Z,11.00
2023-01-01T01:19:57.775Z,8.13
2023-01-01T01:22:28.720Z,7.60
2023-01-01T01:24:57.183Z,6.20
2023-01-01T01:27:25.266Z,5.97
2023-01-01T01:29:53.065Z,6.33
2023-01-01T01:32:20.903Z,6.00
2023-01-01T01:34:48.468Z,4.93
2023-01-01T01:37:15.808Z,4.57
2023-01-01T01:39:43.258Z,5.50
2023-01-01T01:42:18.013Z,4.70
2023-01-01T01:44:54.241Z,5.63
2023-01-01T01:47:40.327Z,5.30
2023-01-01T01:50:12.185Z,5.23
2023-01-01T01:52:42.581Z,6.70
2023-01-01T01:55:10.699Z,5.50
2023-01-01T01:57:39.813Z,7.43
2023-01-01T02:00:11.624Z,8.93
2023-01-01T02:02:51.266Z,7.20
2023-01-01T02:05:19.773Z,6.23
2023-01-01T02:07:47.712Z,6.93
2023-01-01T02:10:15.132Z,6.50
2023-01-01T02:12:43.597Z,6.03
2023-01-01T02:15:11.215Z,7.03
2023-01-01T02:17:52.889Z,7.10
2023-01-01T02:20:32.096Z,7.43
2023-01-01T02:23:16.181Z,7.87
2023-01-01T02:26:10.731Z,7.33
2023-01-01T02:28:48.459Z,6.80
2023-01-01T02:31:23.177Z,6.83
2023-01-01T02:33:52.592Z,6.93
2023-01-01T02:36:21.243Z,7.67
2023-01-01T02:38:51.704Z,7.80
2023-01-01T02:41:26.479Z,7.17
2023-01-01T02:43:54.186Z,6.13
2023-01-01T02:48:54.245Z,6.07
2023-01-01T02:51:33.392Z,5.70
2023-01-01T02:54:08.919Z,7.53
2023-01-01T02:57:04.686Z,7.87
2023-01-01T03:00:14.994Z,7.57
2023-01-01T03:02:46.720Z,5.83
2023-01-01T03:06:05.702Z,7.93
2023-01-01T03:08:50.148Z,7.73
2023-01-01T03:11:20.184Z,7.43
2023-01-01T03:14:29.104Z,6.43
2023-01-01T03:17:08.553Z,6.30
2023-01-01T03:19:39.701Z,6.93
2023-01-01T03:22:17.667Z,6.20
2023-01-01T03:25:04.480Z,5.10
2023-01-01T03:27:50.782Z,5.83
2023-01-01T03:30:20.837Z,7.37
2023-01-01T03:33:07.864Z,6.00
2023-01-01T03:36:04.328Z,5.60
2023-01-01T03:38:39.558Z,5.90
2023-01-01T03:41:15.123Z,6.40
2023-01-01T03:43:54.237Z,6.20
2023-01-01T03:46:24.733Z,6.50
2023-01-01T03:49:03.244Z,6.50
2023-01-01T03:52:00.355Z,6.33
2023-01-01T03:54:55.189Z,6.30
2023-01-01T03:57:35.565Z,5.50
2023-01-01T04:00:16.458Z,5.47
2023-01-01T04:02:53.912Z,6.33
2023-01-01T04:05:22.159Z,5.13
2023-01-01T04:10:18.327Z,4.50
2023-01-01T04:12:51.010Z,4.53
2023-01-01T04:15:19.750Z,4.70
2023-01-01T04:17:47.226Z,5.30
2023-01-01T04:20:15.076Z,5.17
2023-01-01T04:22:42.972Z,4.07
2023-01-01T04:25:11.604Z,4.43
2023-01-01T04:27:39.271Z,3.90
2023-01-01T04:30:08.818Z,5.13
2023-01-01T04:32:36.384Z,3.77
2023-01-01T04:35:03.878Z,3.40
2023-01-01T04:37:31.179Z,3.63
2023-01-01T04:39:58.524Z,3.90
2023-01-01T04:42:25.823Z,4.20
2023-01-01T04:44:53.162Z,3.10
2023-01-01T04:47:22.227Z,4.10
2023-01-01T04:49:49.548Z,3.57
2023-01-01T04:52:16.874Z,3.30
2023-01-01T04:54:44.212Z,3.83
2023-01-01T04:57:11.615Z,3.57
2023-01-01T04:59:39.051Z,3.20
2023-01-01T05:02:06.881Z,3.83
2023-01-01T05:04:34.358Z,2.97
2023-01-01T05:07:01.763Z,2.80
2023-01-01T05:09:29.157Z,3.10
2023-01-01T05:11:56.550Z,2.60
2023-01-01T05:14:23.928Z,3.37
2023-01-01T05:16:51.356Z,3.40
2023-01-01T05:19:18.774Z,3.63
2023-01-01T05:21:46.581Z,3.43
2023-01-01T05:24:14.119Z,2.00
2023-01-01T05:26:44.355Z,2.50
2023-01-01T05:29:16.667Z,2.50
2023-01-01T05:31:45.500Z,2.80
2023-01-01T05:34:12.942Z,2.67
2023-01-01T05:36:40.463Z,3.00
2023-01-01T05:39:09.282Z,1.73
2023-01-01T05:41:37.253Z,2.33
2023-01-01T05:44:09.042Z,2.63
2023-01-01T05:46:37.006Z,2.83
2023-01-01T05:49:04.685Z,2.90
2023-01-01T05:54:01.481Z,2.47
2023-01-01T05:56:29.006Z,5.00
2023-01-01T05:58:56.910Z,1.90
2023-01-01T06:01:26.278Z,2.27
2023-01-01T06:03:54.991Z,2.73
2023-01-01T06:06:24.885Z,2.00
2023-01-01T06:08:57.421Z,2.00
2023-01-01T06:11:25.423Z,1.80
2023-01-01T06:13:54.391Z,2.50
2023-01-01T06:16:22.222Z,2.23
2023-01-01T06:18:49.692Z,2.27
2023-01-01T06:21:19.729Z,2.20
2023-01-01T06:23:47.339Z,2.50
2023-01-01T06:26:17.648Z,1.43
2023-01-01T06:28:45.757Z,2.33
2023-01-01T06:31:16.683Z,1.87
2023-01-01T06:33:44.530Z,2.07
2023-01-01T06:36:14.417Z,2.30
2023-01-01T06:38:44.092Z,2.10
2023-01-01T06:41:13.528Z,1.93
2023-01-01T06:43:41.356Z,2.20
2023-01-01T06:46:16.557Z,2.47
2023-01-01T06:48:44.646Z,2.33
2023-01-01T06:51:19.500Z,2.03
2023-01-01T06:53:47.808Z,2.37
2023-01-01T06:56:15.494Z,2.67
2023-01-01T06:58:42.962Z,3.03
2023-01-01T07:01:12.672Z,1.90
2023-01-01T07:03:40.996Z,2.50
2023-01-01T07:06:09.280Z,2.00
2023-01-01T07:08:37.221Z,2.10
2023-01-01T07:11:06.129Z,2.60
2023-01-01T07:13:33.604Z,2.00
2023-01-01T07:16:03.393Z,2.50
2023-01-01T07:18:34.247Z,2.20
2023-01-01T07:21:03.245Z,1.77
2023-01-01T07:23:34.313Z,2.10
2023-01-01T07:26:01.765Z,2.80
2023-01-01T07:28:29.867Z,2.03
2023-01-01T07:30:57.467Z,2.20
2023-01-01T07:33:25.114Z,1.13
2023-01-01T07:35:52.559Z,1.53
2023-01-01T07:38:19.933Z,1.70
2023-01-01T07:40:47.246Z,2.30
2023-01-01T07:43:14.632Z,2.13
2023-01-01T07:45:42.249Z,2.27
2023-01-01T07:48:13.934Z,2.40
2023-01-01T07:50:42.749Z,2.60
2023-01-01T07:53:10.070Z,1.87
2023-01-01T07:55:37.825Z,2.63
2023-01-01T07:58:05.247Z,2.03
2023-01-01T08:00:32.749Z,2.00
2023-01-01T08:03:00.221Z,2.30
2023-01-01T08:05:27.731Z,1.63
2023-01-01T08:07:55.303Z,2.00
2023-01-01T08:10:23.146Z,1.53
2023-01-01T08:12:50.542Z,1.67
2023-01-01T08:15:18.023Z,2.03
2023-01-01T08:17:47.295Z,2.13
2023-01-01T08:20:15.243Z,2.33
2023-01-01T08:22:42.586Z,2.10
2023-01-01T08:25:10.287Z,2.40
2023-01-01T08:27:38.191Z,2.37
2023-01-01T08:30:06.059Z,1.87
2023-01-01T08:32:33.411Z,2.67
2023-01-01T08:35:00.769Z,2.43
2023-01-01T08:37:28.209Z,2.43
2023-01-01T08:39:55.621Z,2.00
2023-01-01T08:42:23.016Z,2.50
2023-01-01T08:44:50.381Z,1.83
2023-01-01T08:47:22.466Z,2.57
2023-01-01T08:49:50.147Z,2.13
2023-01-01T08:52:17.805Z,2.30
2023-01-01T08:54:45.546Z,2.03
2023-01-01T08:57:13.495Z,2.80
2023-01-01T08:59:40.823Z,2.80
2023-01-01T09:02:08.534Z,2.20
2023-01-01T09:04:36.160Z,1.70
2023-01-01T09:07:03.596Z,2.10
2023-01-01T09:09:31.788Z,2.03
2023-01-01T09:12:04.124Z,1.90
2023-01-01T09:14:32.969Z,2.60
2023-01-01T09:17:00.407Z,1.80
2023-01-01T09:19:27.996Z,2.17
2023-01-01T09:21:55.440Z,2.20
2023-01-01T09:24:22.829Z,2.33
2023-01-01T09:26:50.509Z,2.17
2023-01-01T09:29:18.726Z,2.53
2023-01-01T09:31:46.689Z,2.27
2023-01-01T09:34:14.206Z,1.50
2023-01-01T09:36:41.955Z,2.23
2023-01-01T09:39:12.986Z,2.60
2023-01-01T09:42:03.156Z,1.90
2023-01-01T09:44:49.357Z,2.60
2023-01-01T09:47:37.092Z,3.37
2023-01-01T09:50:14.301Z,3.13
2023-01-01T09:52:53.922Z,4.20
2023-01-01T09:55:24.886Z,2.47
2023-01-01T09:57:52.514Z,2.10
2023-01-01T10:00:20.359Z,2.73
2023-01-01T10:02:56.707Z,2.20
2023-01-01T10:05:49.289Z,1.97
2023-01-01T10:08:47.478Z,1.90
2023-01-01T10:11:33.603Z,2.00
2023-01-01T10:14:14.079Z,2.57
2023-01-01T10:16:46.170Z,2.10
2023-01-01T10:19:26.403Z,2.30
2023-01-01T10:21:57.230Z,2.60
2023-01-01T10:24:44.004Z,2.47
2023-01-01T10:27:26.433Z,2.10
2023-01-01T10:29:59.556Z,2.80
2023-01-01T10:32:36.351Z,1.70
2023-01-01T10:35:18.858Z,2.03
2023-01-01T10:37:46.325Z,2.37
2023-01-01T10:40:24.709Z,2.13
2023-01-01T10:42:53.962Z,1.97
2023-01-01T10:45:36.670Z,1.93
2023-01-01T10:48:21.519Z,1.73
2023-01-01T10:50:53.606Z,2.27
2023-01-01T10:53:41.901Z,2.10
2023-01-01T10:56:18.018Z,2.07
2023-01-01T10:58:57.523Z,1.77
2023-01-01T11:01:28.545Z,1.87
2023-01-01T11:03:59.089Z,1.63
2023-01-01T11:06:37.243Z,2.33
2023-01-01T11:09:07.141Z,2.63
2023-01-01T11:11:45.810Z,2.07
2023-01-01T11:14:21.701Z,2.33
2023-01-01T11:16:50.109Z,2.03
2023-01-01T11:19:27.779Z,2.27
2023-01-01T11:21:55.312Z,2.83
2023-01-01T11:24:30.504Z,2.43
2023-01-01T11:27:21.864Z,2.27
2023-01-01T11:29:51.336Z,2.10
2023-01-01T11:32:22.962Z,2.47
2023-01-01T11:35:00.375Z,2.27
2023-01-01T11:37:33.103Z,1.90
2023-01-01T11:40:01.696Z,1.97
2023-01-01T11:42:31.289Z,2.60
2023-01-01T11:45:02.105Z,2.30
2023-01-01T11:47:38.373Z,2.00
2023-01-01T11:50:33.808Z,2.53
2023-01-01T11:53:28.064Z,2.17
2023-01-01T11:56:15.759Z,2.13
2023-01-01T11:58:51.082Z,3.40
2023-01-01T12:01:51.027Z,2.67
2023-01-01T12:04:31.774Z,1.50
2023-01-01T12:07:11.893Z,3.73
2023-01-01T12:10:04.597Z,2.10
2023-01-01T12:12:57.968Z,2.00
2023-01-01T12:15:38.861Z,2.80
2023-01-01T12:18:25.098Z,2.77
2023-01-01T12:21:02.102Z,2.47
2023-01-01T12:23:31.413Z,2.23
2023-01-01T12:26:16.398Z,2.77
2023-01-01T12:29:15.409Z,2.13
2023-01-01T12:32:29.513Z,2.23
2023-01-01T12:34:59.843Z,2.53
2023-01-01T12:38:02.251Z,1.70
2023-01-01T12:40:35.401Z,2.00
2023-01-01T12:43:25.226Z,2.43
2023-01-01T12:46:43.271Z,2.20
2023-01-01T12:49:22.364Z,3.30
2023-01-01T12:52:09.094Z,3.37
2023-01-01T12:54:56.327Z,2.20
2023-01-01T12:57:41.086Z,2.07
2023-01-01T13:00:17.258Z,1.80
2023-01-01T13:02:56.762Z,2.70
2023-01-01T13:05:40.161Z,2.83
2023-01-01T13:08:08.131Z,3.10
2023-01-01T13:10:40.623Z,2.67
2023-01-01T13:13:08.282Z,2.80
2023-01-01T13:15:38.665Z,3.40
2023-01-01T13:18:08.368Z,2.60
2023-01-01T13:20:42.321Z,2.70
2023-01-01T13:23:31.543Z,2.67
2023-01-01T13:26:20.771Z,2.70
2023-01-01T13:28:59.431Z,2.77
2023-01-01T13:31:38.435Z,2.63
2023-01-01T13:34:30.302Z,3.00
2023-01-01T13:37:23.710Z,2.87
2023-01-01T13:39:55.448Z,2.20
2023-01-01T13:42:57.390Z,2.30
2023-01-01T13:46:11.051Z,2.93
2023-01-01T13:48:59.335Z,2.10
2023-01-01T13:52:07.906Z,1.87
2023-01-01T13:55:01.906Z,1.93
2023-01-01T13:58:06.998Z,2.53
2023-01-01T14:00:55.180Z,2.90
2023-01-01T14:03:24.175Z,2.23
2023-01-01T14:05:59.681Z,2.47
2023-01-01T14:08:35.201Z,2.50
2023-01-01T14:11:15.904Z,3.17
2023-01-01T14:13:43.316Z,2.30
2023-01-01T14:16:13.884Z,3.10
2023-01-01T14:18:48.094Z,2.10
2023-01-01T14:21:21.277Z,2.90
2023-01-01T14:24:08.849Z,2.30
2023-01-01T14:26:38.502Z,2.70
2023-01-01T14:29:14.738Z,3.00
2023-01-01T14:31:44.918Z,2.43
2023-01-01T14:34:27.956Z,3.43
2023-01-01T14:37:01.587Z,2.43
2023-01-01T14:39:34.632Z,3.10
2023-01-01T14:42:21.873Z,6.37
2023-01-01T14:44:50.716Z,5.27
2023-01-01T14:47:35.033Z,4.13
2023-01-01T14:50:23.996Z,4.37
2023-01-01T14:52:56.296Z,2.57
2023-01-01T14:55:26.592Z,2.77
2023-01-01T14:57:59.162Z,2.63
2023-01-01T15:00:31.482Z,2.97
2023-01-01T15:03:28.131Z,2.20
2023-01-01T15:06:03.388Z,2.20
2023-01-01T15:08:30.772Z,2.20
2023-01-01T15:10:57.995Z,2.60
2023-01-01T15:13:27.796Z,2.27
2023-01-01T15:15:57.516Z,2.93
2023-01-01T15:18:42.455Z,4.37
2023-01-01T15:21:16.566Z,2.80
2023-01-01T15:23:56.126Z,4.20
2023-01-01T15:26:43.374Z,3.73
2023-01-01T15:29:17.921Z,3.23
2023-01-01T15:31:50.189Z,4.17
2023-01-01T15:34:27.825Z,3.73
2023-01-01T15:36:57.337Z,2.67
2023-01-01T15:39:24.420Z,4.23
2023-01-01T15:41:52.704Z,4.37
2023-01-01T15:44:36.446Z,4.17
2023-01-01T15:47:14.350Z,3.10
2023-01-01T15:49:41.462Z,3.47
2023-01-01T15:52:27.023Z,6.03
2023-01-01T15:54:54.142Z,4.50
2023-01-01T15:57:23.738Z,4.03
2023-01-01T15:59:53.679Z,3.53
2023-01-01T16:02:33.416Z,6.03
2023-01-01T16:05:00.730Z,3.43
2023-01-01T16:07:28.175Z,3.77
2023-01-01T16:09:58.174Z,3.90
2023-01-01T16:12:25.649Z,4.43
2023-01-01T16:14:53.090Z,3.73
2023-01-01T16:17:21.235Z,5.20
2023-01-01T16:19:49.328Z,4.47
2023-01-01T16:22:18.160Z,4.73
2023-01-01T16:24:45.755Z,4.23
2023-01-01T16:27:13.287Z,4.30
2023-01-01T16:29:43.415Z,4.60
2023-01-01T16:32:16.943Z,4.87
2023-01-01T16:34:44.627Z,4.10
2023-01-01T16:37:11.955Z,4.40
2023-01-01T16:39:39.315Z,6.70
2023-01-01T16:42:08.583Z,9.03
2023-01-01T16:44:38.703Z,9.03
2023-01-01T16:47:06.059Z,7.37
2023-01-01T16:49:33.440Z,10.00
2023-01-01T16:52:00.702Z,6.50
2023-01-01T16:54:28.211Z,6.60
2023-01-01T16:56:55.794Z,6.60
2023-01-01T16:59:24.858Z,5.60
2023-01-01T17:01:52.314Z,5.50
2023-01-01T17:04:19.640Z,5.50
2023-01-01T17:06:46.979Z,8.63
2023-01-01T17:09:15.463Z,6.77
2023-01-01T17:11:42.839Z,8.03
2023-01-01T17:14:10.802Z,5.20
2023-01-01T17:16:39.827Z,5.37
2023-01-01T17:19:17.541Z,4.03
2023-01-01T17:21:47.255Z,5.70
2023-01-01T17:24:16.173Z,4.70
2023-01-01T17:26:43.665Z,2.90
2023-01-01T17:29:11.849Z,5.80
2023-01-01T17:31:39.347Z,11.93
2023-01-01T17:34:07.206Z,4.83
2023-01-01T17:36:36.278Z,11.10
2023-01-01T17:39:03.658Z,8.00
2023-01-01T17:41:31.108Z,4.27
2023-01-01T17:43:58.511Z,2.67
2023-01-01T17:46:28.510Z,7.10
2023-01-01T17:48:56.625Z,6.43
2023-01-01T17:51:25.274Z,6.50
2023-01-01T17:53:52.791Z,5.33
2023-01-01T17:56:22.177Z,6.70
2023-01-01T17:58:51.710Z,6.70
2023-01-01T18:01:22.149Z,6.70
2023-01-01T18:04:19.751Z,6.70
2023-01-01T18:06:54.203Z,5.40
2023-01-01T18:09:22.273Z,5.00
2023-01-01T18:11:49.278Z,11.17
2023-01-01T18:14:20.937Z,9.00
2023-01-01T18:16:49.793Z,9.40
2023-01-01T18:19:17.157Z,6.70
2023-01-01T18:21:44.227Z,6.83
2023-01-01T18:24:15.966Z,10.90
2023-01-01T18:26:43.469Z,9.90
2023-01-01T18:29:10.560Z,13.30
2023-01-01T18:31:37.577Z,7.90
2023-01-01T18:34:06.663Z,8.00
2023-01-01T18:36:35.135Z,8.57
2023-01-01T18:39:09.533Z,10.97
2023-01-01T18:41:48.536Z,11.37
2023-01-01T18:44:28.390Z,8.50
2023-01-01T18:47:04.111Z,9.20
2023-01-01T18:49:32.615Z,9.93
2023-01-01T18:52:17.173Z,11.97
2023-01-01T18:54:44.492Z,13.60
2023-01-01T18:57:23.643Z,15.60
2023-01-01T18:59:59.475Z,15.97
2023-01-01T19:02:42.668Z,11.43
2023-01-01T19:05:31.636Z,14.70
2023-01-01T19:08:07.814Z,8.60
2023-01-01T19:10:40.653Z,8.43
2023-01-01T19:13:32.932Z,7.20
2023-01-01T19:16:24.366Z,11.17
2023-01-01T19:18:52.966Z,9.47
2023-01-01T19:21:23.784Z,11.73
2023-01-01T19:23:54.521Z,12.40
2023-01-01T19:26:28.112Z,18.70
2023-01-01T19:29:17.188Z,15.90
2023-01-01T19:31:46.629Z,12.60
2023-01-01T19:34:13.699Z,14.00
2023-01-01T19:36:40.792Z,15.17
2023-01-01T19:39:08.540Z,15.50
2023-01-01T19:41:36.196Z,12.20
2023-01-01T19:44:06.073Z,13.80
2023-01-01T19:46:38.997Z,11.40
2023-01-01T19:49:06.096Z,8.73
2023-01-01T19:51:33.020Z,7.20
2023-01-01T19:53:59.964Z,7.70
2023-01-01T19:56:27.081Z,7.53
2023-01-01T19:58:54.041Z,6.93
2023-01-01T20:01:21.563Z,8.00
2023-01-01T20:03:54.709Z,6.20
2023-01-01T20:06:23.473Z,7.50
2023-01-01T20:08:50.993Z,10.47
2023-01-01T20:11:17.968Z,11.30
2023-01-01T20:13:44.925Z,11.90
2023-01-01T20:16:11.878Z,8.00
2023-01-01T20:18:38.942Z,11.80
2023-01-01T20:21:26.591Z,12.63
2023-01-01T20:23:55.307Z,12.13
2023-01-01T20:26:23.672Z,12.30
2023-01-01T20:29:10.081Z,8.77
2023-01-01T20:31:37.632Z,9.07
2023-01-01T20:34:05.218Z,9.33
2023-01-01T20:36:50.581Z,8.13
2023-01-01T20:39:17.537Z,9.33
2023-01-01T20:41:44.528Z,11.83
2023-01-01T20:44:11.858Z,13.90
2023-01-01T20:46:39.291Z,12.40
2023-01-01T20:49:06.297Z,10.07
2023-01-01T20:51:33.727Z,9.10
2023-01-01T20:54:00.868Z,10.57
2023-01-01T20:56:27.963Z,10.10
2023-01-01T20:59:00.084Z,12.80
2023-01-01T21:01:30.584Z,15.60
2023-01-01T21:03:57.643Z,15.87
2023-01-01T21:06:25.046Z,13.53
2023-01-01T21:08:52.959Z,11.60
2023-01-01T21:11:20.515Z,9.00
2023-01-01T21:13:48.129Z,11.30
2023-01-01T21:16:23.424Z,14.73
2023-01-01T21:18:51.082Z,10.87
2023-01-01T21:21:23.362Z,8.77
2023-01-01T21:23:52.977Z,11.70
2023-01-01T21:26:31.912Z,10.50
2023-01-01T21:29:08.418Z,11.30
2023-01-01T21:31:38.149Z,8.20
2023-01-01T21:34:23.470Z,11.23
2023-01-01T21:36:51.135Z,10.40
2023-01-01T21:39:29.722Z,10.40
2023-01-01T21:42:09.148Z,9.17
2023-01-01T21:44:36.078Z,10.57
2023-01-01T21:47:08.959Z,8.80
2023-01-01T21:49:37.357Z,8.80
2023-01-01T21:52:19.254Z,9.20
2023-01-01T21:54:48.273Z,7.40
2023-01-01T21:57:19.852Z,6.40
2023-01-01T21:59:47.533Z,7.43
2023-01-01T22:02:14.592Z,7.30
2023-01-01T22:04:49.078Z,8.37
2023-01-01T22:10:21.577Z,10.37
2023-01-01T22:12:51.327Z,8.90
2023-01-01T22:15:39.602Z,9.73
2023-01-01T22:18:09.583Z,9.00
2023-01-01T22:20:39.737Z,8.10
2023-01-01T22:23:42.026Z,7.57
2023-01-01T22:26:27.802Z,8.40
2023-01-01T22:29:04.062Z,7.87
2023-01-01T22:31:33.329Z,8.00
2023-01-01T22:34:04.404Z,7.80
2023-01-01T22:36:36.376Z,7.67
2023-01-01T22:39:13.435Z,7.50
2023-01-01T22:41:42.291Z,7.07
2023-01-01T22:44:11.665Z,6.93
2023-01-01T22:46:42.231Z,8.00
2023-01-01T22:49:19.962Z,7.40
2023-01-01T22:51:47.499Z,6.90
2023-01-01T22:54:14.459Z,7.50
2023-01-01T22:56:41.402Z,7.10
2023-01-01T22:59:08.383Z,7.57
2023-01-01T23:01:35.436Z,7.90
2023-01-01T23:04:02.508Z,6.63
2023-01-01T23:06:29.779Z,15.77
2023-01-01T23:08:57.063Z,8.13
2023-01-01T23:11:24.325Z,10.40
2023-01-01T23:14:10.366Z,10.90
2023-01-01T23:16:37.519Z,11.07
2023-01-01T23:19:05.418Z,7.93
2023-01-01T23:21:34.292Z,10.70
2023-01-01T23:24:04.699Z,9.00
2023-01-01T23:26:31.933Z,8.87
2023-01-01T23:28:58.922Z,8.20
2023-01-01T23:31:28.102Z,9.07
2023-01-01T23:33:56.527Z,7.87
2023-01-01T23:36:25.675Z,8.27
2023-01-01T23:38:52.609Z,10.00
2023-01-01T23:41:19.582Z,11.27
2023-01-01T23:43:46.544Z,10.60
2023-01-01T23:46:14.513Z,9.73
2023-01-01T23:48:46.512Z,9.93
2023-01-01T23:51:14.276Z,9.80
2023-01-01T23:53:41.235Z,9.20
2023-01-01T23:56:08.312Z,8.53
2023-01-01T23:58:35.266Z,8.23
